Time;durP1;ratioP1;P1;durP2;ratioP2;P2;SDS_P1;SDS_P2;PMS_P1;PMS_P2;Temp;Humidity;BMP_temperature;BMP_pressure;BME280_temperature;BME280_humidity;BME280_pressure;Samples;Min_cycle;Max_cycle;Signal;HPM_P1;HPM_P2
2023/05/24 00:00:32;;;;;;;6.70;2.90;;;13.70;69.40;;;;;;933852;149;27378;-74
2023/05/24 00:02:59;;;;;;;6.50;2.67;;;13.60;69.40;;;;;;933884;149;27277;-74
2023/05/24 00:05:29;;;;;;;4.57;2.80;;;13.50;69.40;;;;;;912162;153;27357;-74
2023/05/24 00:07:52;;;;;;;11.83;3.37;;;13.50;69.50;;;;;;934218;150;27428;-74
2023/05/24 00:10:19;;;;;;;6.37;2.53;;;13.40;69.60;;;;;;934844;149;27393;-74
2023/05/24 00:12:45;;;;;;;7.33;2.70;;;13.30;69.60;;;;;;918099;152;27329;-74
2023/05/24 00:15:12;;;;;;;6.23;2.60;;;13.30;69.60;;;;;;912390;153;27471;-74
2023/05/24 00:17:41;;;;;;;8.10;2.50;;;13.20;69.70;;;;;;912704;153;27418;-74
2023/05/24 00:20:06;;;;;;;5.37;2.60;;;13.10;69.80;;;;;;926629;152;27413;-74
2023/05/24 00:22:32;;;;;;;7.27;3.43;;;13.00;69.90;;;;;;926833;152;27386;-74
2023/05/24 00:24:59;;;;;;;6.17;2.40;;;13.00;70.00;;;;;;927179;152;27435;-74
2023/05/24 00:27:25;;;;;;;5.17;2.63;;;12.90;70.10;;;;;;927094;152;27374;-75
2023/05/24 00:29:52;;;;;;;4.80;3.17;;;12.90;70.20;;;;;;927282;152;27298;-74
2023/05/24 00:32:18;;;;;;;5.50;2.33;;;12.80;70.30;;;;;;912195;153;27403;-74
2023/05/24 00:34:45;;;;;;;6.27;2.50;;;12.70;70.30;;;;;;934903;149;27313;-74
2023/05/24 00:37:11;;;;;;;5.57;2.73;;;12.70;70.40;;;;;;933452;149;27340;-74
2023/05/24 00:39:38;;;;;;;4.67;2.57;;;12.60;70.40;;;;;;933753;149;27750;-74
2023/05/24 00:42:05;;;;;;;6.13;2.77;;;12.60;70.60;;;;;;934569;149;27368;-74
2023/05/24 00:44:31;;;;;;;8.60;3.00;;;12.50;70.60;;;;;;933659;149;27448;-74
2023/05/24 00:46:58;;;;;;;5.23;2.70;;;12.50;70.90;;;;;;933646;149;27377;-74
2023/05/24 00:49:25;;;;;;;7.20;2.93;;;12.50;70.90;;;;;;933681;149;27378;-74
2023/05/24 00:51:51;;;;;;;6.37;2.97;;;12.40;71.00;;;;;;933514;149;27348;-74
2023/05/24 00:54:18;;;;;;;6.23;2.57;;;12.40;71.20;;;;;;933528;149;27432;-74
2023/05/24 00:56:44;;;;;;;6.43;3.00;;;12.30;71.20;;;;;;933592;149;27332;-74
2023/05/24 00:59:11;;;;;;;4.83;2.60;;;12.30;71.40;;;;;;933520;149;27331;-74
2023/05/24 01:01:37;;;;;;;4.83;2.70;;;12.30;71.40;;;;;;934008;149;27836;-74
2023/05/24 01:04:04;;;;;;;4.90;2.70;;;12.20;71.70;;;;;;934121;149;27849;-74
2023/05/24 01:06:31;;;;;;;6.37;2.63;;;12.20;71.80;;;;;;933747;149;27413;-74
2023/05/24 01:09:06;;;;;;;4.33;2.50;;;12.20;71.90;;;;;;932273;149;27320;-74
2023/05/24 01:11:56;;;;;;;7.40;3.60;;;12.20;72.60;;;;;;933484;149;27296;-74
2023/05/24 01:14:28;;;;;;;4.43;2.37;;;12.20;71.90;;;;;;931539;149;27355;-75
2023/05/24 01:17:16;;;;;;;7.50;3.03;;;12.20;72.00;;;;;;933161;149;27429;-75
2023/05/24 01:20:00;;;;;;;5.63;2.67;;;12.10;72.00;;;;;;932036;149;27307;-75
2023/05/24 01:22:30;;;;;;;7.23;3.33;;;12.10;72.00;;;;;;933412;149;27895;-75
2023/05/24 01:25:02;;;;;;;3.50;2.87;;;12.10;72.10;;;;;;933827;149;27397;-75
2023/05/24 01:27:29;;;;;;;6.13;2.90;;;12.10;72.10;;;;;;934031;149;27454;-75
2023/05/24 01:29:56;;;;;;;4.57;2.80;;;12.10;72.20;;;;;;934032;149;27358;-75
2023/05/24 01:32:22;;;;;;;8.13;2.80;;;12.10;72.30;;;;;;933531;149;27385;-75
2023/05/24 01:34:49;;;;;;;5.10;2.70;;;12.10;72.50;;;;;;934307;149;27313;-75
2023/05/24 01:37:15;;;;;;;5.30;2.80;;;12.10;72.60;;;;;;933549;149;27370;-75
2023/05/24 01:39:42;;;;;;;3.43;2.80;;;12.10;72.60;;;;;;933721;149;27376;-75
2023/05/24 01:42:24;;;;;;;8.63;2.83;;;12.10;72.70;;;;;;934660;149;27511;-75
2023/05/24 01:45:08;;;;;;;6.07;3.23;;;12.10;72.70;;;;;;933534;149;27443;-75
2023/05/24 01:48:03;;;;;;;7.27;2.60;;;12.10;72.60;;;;;;932361;149;27331;-75
2023/05/24 01:50:32;;;;;;;6.00;2.70;;;12.10;72.60;;;;;;933584;149;27791;-75
2023/05/24 01:52:59;;;;;;;4.10;2.60;;;12.00;72.50;;;;;;933691;149;27293;-75
2023/05/24 01:55:25;;;;;;;7.13;2.73;;;12.00;72.60;;;;;;933907;149;27475;-75
2023/05/24 01:57:52;;;;;;;5.93;2.73;;;12.00;72.70;;;;;;918892;152;27391;-75
2023/05/24 02:00:19;;;;;;;7.77;2.60;;;11.90;72.50;;;;;;912582;153;27457;-74
2023/05/24 02:02:45;;;;;;;6.27;2.60;;;12.00;72.80;;;;;;926787;152;27441;-74
2023/05/24 02:05:12;;;;;;;7.93;2.63;;;11.90;72.80;;;;;;927494;152;27359;-74
2023/05/24 02:07:40;;;;;;;4.87;2.60;;;11.90;72.90;;;;;;927183;152;27390;-74
2023/05/24 02:10:05;;;;;;;6.30;2.60;;;11.90;73.00;;;;;;913574;152;27423;-74
2023/05/24 02:12:32;;;;;;;7.60;2.73;;;12.00;73.20;;;;;;913186;152;27359;-74
2023/05/24 02:14:59;;;;;;;7.03;2.87;;;12.00;73.20;;;;;;935154;149;27381;-74
2023/05/24 02:17:25;;;;;;;6.03;2.60;;;12.00;73.10;;;;;;918424;152;27359;-74
2023/05/24 02:19:52;;;;;;;4.90;2.80;;;12.00;73.00;;;;;;915539;152;27404;-74
2023/05/24 02:22:21;;;;;;;10.03;3.27;;;12.00;72.90;;;;;;934654;149;27278;-74
2023/05/24 02:24:47;;;;;;;4.97;2.37;;;12.00;72.90;;;;;;911356;152;27430;-74
2023/05/24 02:27:11;;;;;;;5.97;2.50;;;12.00;72.70;;;;;;914135;152;27731;-74
2023/05/24 02:29:40;;;;;;;5.87;2.40;;;12.10;72.70;;;;;;918518;152;27477;-74
2023/05/24 02:32:05;;;;;;;5.60;2.40;;;12.10;72.60;;;;;;933945;149;27356;-74
2023/05/24 02:34:31;;;;;;;7.07;2.80;;;12.10;72.60;;;;;;919600;152;27356;-74
2023/05/24 02:36:58;;;;;;;6.23;2.73;;;12.20;72.70;;;;;;923958;152;27288;-74
2023/05/24 02:39:24;;;;;;;5.47;2.43;;;12.20;72.40;;;;;;935547;149;27435;-74
2023/05/24 02:41:51;;;;;;;4.33;2.30;;;12.20;72.40;;;;;;945362;148;27398;-76
2023/05/24 02:44:17;;;;;;;5.60;2.73;;;12.20;72.10;;;;;;946465;148;27336;-76
2023/05/24 02:46:44;;;;;;;5.30;2.80;;;12.20;72.00;;;;;;947684;148;27334;-76
2023/05/24 02:49:11;;;;;;;6.07;2.27;;;12.20;71.80;;;;;;947344;148;27308;-76
2023/05/24 02:51:37;;;;;;;12.97;3.00;;;12.20;71.70;;;;;;947719;148;27350;-76
2023/05/24 02:54:04;;;;;;;6.37;2.27;;;12.20;71.60;;;;;;930257;151;27384;-76
2023/05/24 02:56:30;;;;;;;7.50;2.83;;;12.20;71.50;;;;;;946815;148;27404;-76
2023/05/24 02:58:57;;;;;;;5.93;2.30;;;12.10;71.40;;;;;;947206;148;27380;-76
2023/05/24 03:01:24;;;;;;;4.87;2.60;;;12.10;71.50;;;;;;946559;149;27366;-76
2023/05/24 03:03:50;;;;;;;5.90;2.50;;;12.10;71.70;;;;;;947314;148;27312;-76
2023/05/24 03:06:17;;;;;;;5.80;2.57;;;12.10;71.70;;;;;;934020;151;27440;-78
2023/05/24 03:08:43;;;;;;;6.37;2.70;;;12.10;71.70;;;;;;929794;151;27388;-78
2023/05/24 03:11:10;;;;;;;5.67;2.10;;;12.10;71.70;;;;;;926866;152;27378;-78
2023/05/24 03:13:37;;;;;;;6.63;2.03;;;12.10;71.70;;;;;;930245;151;27382;-78
2023/05/24 03:16:03;;;;;;;4.67;2.33;;;12.10;71.50;;;;;;930565;151;27359;-78
2023/05/24 03:18:30;;;;;;;5.33;2.17;;;12.10;71.40;;;;;;947326;148;27336;-79
2023/05/24 03:20:56;;;;;;;11.93;3.20;;;12.10;71.50;;;;;;947947;148;27433;-78
2023/05/24 03:23:23;;;;;;;6.53;2.57;;;12.10;71.40;;;;;;950310;148;27777;-78
2023/05/24 03:25:49;;;;;;;5.37;2.23;;;12.20;71.50;;;;;;941537;149;27441;-76
2023/05/24 03:28:16;;;;;;;9.83;2.70;;;12.20;71.40;;;;;;947088;149;27336;-76
2023/05/24 03:30:43;;;;;;;11.03;2.80;;;12.20;70.30;;;;;;946946;148;27435;-76
2023/05/24 03:33:09;;;;;;;4.70;2.40;;;12.20;71.10;;;;;;947239;148;27449;-76
2023/05/24 03:35:36;;;;;;;5.00;2.13;;;12.20;71.00;;;;;;947005;148;27308;-76
2023/05/24 03:38:02;;;;;;;8.77;2.60;;;12.20;71.00;;;;;;928794;151;27448;-76
2023/05/24 03:40:32;;;;;;;8.13;2.90;;;12.20;70.90;;;;;;931181;151;27306;-76
2023/05/24 03:42:56;;;;;;;5.87;2.50;;;12.20;70.80;;;;;;929868;151;27417;-76
2023/05/24 03:45:22;;;;;;;6.27;2.70;;;12.20;70.70;;;;;;947358;148;27473;-76
2023/05/24 03:47:49;;;;;;;7.37;2.10;;;12.20;70.70;;;;;;937099;151;27345;-76
2023/05/24 03:50:15;;;;;;;6.70;2.50;;;12.20;70.60;;;;;;927604;152;27422;-76
2023/05/24 03:52:42;;;;;;;7.60;2.40;;;12.20;70.60;;;;;;928171;152;27398;-76
2023/05/24 03:55:08;;;;;;;6.13;2.30;;;12.10;70.40;;;;;;946284;149;27368;-76
2023/05/24 03:57:35;;;;;;;4.27;2.40;;;12.10;70.50;;;;;;946143;151;27726;-76
2023/05/24 04:00:02;;;;;;;7.67;2.40;;;12.10;70.40;;;;;;945798;151;27331;-76
2023/05/24 04:02:28;;;;;;;8.13;2.70;;;12.00;70.40;;;;;;945932;151;27383;-76
2023/05/24 04:04:55;;;;;;;6.57;2.30;;;12.00;70.40;;;;;;946296;151;27371;-76
2023/05/24 04:07:23;;;;;;;6.80;2.37;;;12.00;70.60;;;;;;945907;151;27447;-76
2023/05/24 04:09:48;;;;;;;5.33;2.10;;;11.90;70.50;;;;;;945701;149;27451;-76
2023/05/24 04:12:15;;;;;;;7.40;2.83;;;11.90;70.50;;;;;;930196;151;27362;-76
2023/05/24 04:14:41;;;;;;;4.07;2.07;;;11.90;69.90;;;;;;947236;148;27354;-76
2023/05/24 04:17:08;;;;;;;6.90;2.27;;;11.80;70.80;;;;;;946646;149;27381;-76
2023/05/24 04:19:34;;;;;;;4.77;2.30;;;11.80;71.00;;;;;;946471;149;27324;-76
2023/05/24 04:22:01;;;;;;;7.83;2.80;;;11.80;71.10;;;;;;946861;148;27336;-76
2023/05/24 04:24:28;;;;;;;6.13;2.10;;;11.80;71.20;;;;;;946897;149;27327;-76
2023/05/24 04:26:54;;;;;;;7.03;2.37;;;11.80;71.30;;;;;;947612;148;27453;-76
2023/05/24 04:29:21;;;;;;;6.17;2.30;;;11.80;71.30;;;;;;946338;149;27355;-76
2023/05/24 04:31:48;;;;;;;5.77;2.13;;;11.80;71.30;;;;;;947505;149;27433;-76
2023/05/24 04:34:14;;;;;;;4.70;1.87;;;11.80;71.40;;;;;;934766;151;27298;-76
2023/05/24 04:36:40;;;;;;;6.00;2.37;;;11.90;71.50;;;;;;946952;149;27364;-76
2023/05/24 04:39:07;;;;;;;6.83;2.00;;;11.90;71.50;;;;;;947497;148;27332;-76
2023/05/24 04:41:37;;;;;;;4.60;2.40;;;12.00;71.70;;;;;;928776;151;27432;-76
2023/05/24 04:44:03;;;;;;;8.37;3.17;;;12.00;71.50;;;;;;919324;152;27456;-76
2023/05/24 04:46:30;;;;;;;5.57;2.23;;;12.10;71.50;;;;;;935782;149;27370;-76
2023/05/24 04:48:57;;;;;;;7.57;2.37;;;12.10;71.50;;;;;;912437;153;27469;-76
2023/05/24 04:51:23;;;;;;;5.47;2.63;;;12.20;71.40;;;;;;928449;150;27435;-76
2023/05/24 04:53:50;;;;;;;7.20;2.97;;;12.30;71.50;;;;;;928995;150;27356;-76
2023/05/24 04:56:16;;;;;;;5.80;2.50;;;12.40;71.70;;;;;;928009;150;27327;-76
2023/05/24 04:58:43;;;;;;;5.70;2.70;;;12.40;72.00;;;;;;935124;149;27485;-76
2023/05/24 05:01:10;;;;;;;5.50;2.37;;;12.60;72.40;;;;;;935095;149;27330;-76
2023/05/24 05:03:36;;;;;;;7.47;2.50;;;12.80;72.90;;;;;;927757;150;27338;-76
2023/05/24 05:06:03;;;;;;;8.23;2.70;;;13.20;73.40;;;;;;935338;149;27319;-76
2023/05/24 05:08:29;;;;;;;4.70;2.52;;;13.50;74.10;;;;;;934632;149;27362;-76
2023/05/24 05:10:56;;;;;;;7.72;2.27;;;13.90;74.30;;;;;;934479;150;27804;-76
2023/05/24 05:13:22;;;;;;;8.13;2.08;;;14.40;74.20;;;;;;920457;152;27777;-76
2023/05/24 05:15:49;;;;;;;6.12;2.33;;;14.80;73.80;;;;;;911524;153;27269;-76
2023/05/24 05:18:16;;;;;;;4.45;2.00;;;15.30;73.30;;;;;;911918;153;27305;-76
2023/05/24 05:20:42;;;;;;;5.03;1.98;;;15.90;72.80;;;;;;927409;151;27391;-76
2023/05/24 05:23:09;;;;;;;7.05;2.60;;;16.30;72.20;;;;;;912220;153;27436;-76
2023/05/24 05:25:35;;;;;;;4.22;1.67;;;16.90;71.40;;;;;;935231;149;27307;-76
2023/05/24 05:28:02;;;;;;;5.50;2.50;;;17.40;70.70;;;;;;912257;152;27348;-76
2023/05/24 05:30:29;;;;;;;6.85;2.50;;;17.90;69.90;;;;;;927856;150;27516;-76
2023/05/24 05:32:55;;;;;;;4.65;2.37;;;18.40;68.90;;;;;;935049;149;27377;-76
2023/05/24 05:35:22;;;;;;;3.52;1.90;;;18.90;67.70;;;;;;919464;152;27316;-76
2023/05/24 05:37:48;;;;;;;5.90;2.42;;;19.30;66.90;;;;;;919043;152;27344;-76
2023/05/24 05:40:15;;;;;;;6.62;2.55;;;19.70;65.60;;;;;;911361;153;27348;-76
2023/05/24 05:42:42;;;;;;;5.72;2.70;;;20.10;64.40;;;;;;926683;152;27497;-76
2023/05/24 05:45:08;;;;;;;5.53;2.35;;;20.50;63.80;;;;;;931791;151;27393;-76
2023/05/24 05:47:35;;;;;;;5.37;2.33;;;20.80;62.80;;;;;;932074;153;27334;-76
2023/05/24 05:50:01;;;;;;;2.45;1.70;;;21.10;62.40;;;;;;931476;153;27314;-76
2023/05/24 05:52:28;;;;;;;5.45;2.33;;;21.50;61.40;;;;;;938451;151;27362;-76
2023/05/24 05:54:55;;;;;;;2.27;1.50;;;21.80;60.40;;;;;;913261;154;27391;-76
2023/05/24 05:57:23;;;;;;;3.25;2.00;;;22.10;59.90;;;;;;919382;152;27358;-76
2023/05/24 05:59:48;;;;;;;5.65;2.20;;;22.30;59.20;;;;;;937985;150;27317;-76
2023/05/24 06:02:14;;;;;;;5.67;2.12;;;22.60;58.40;;;;;;927831;152;27396;-76
2023/05/24 06:04:41;;;;;;;4.35;2.27;;;22.80;57.60;;;;;;922671;155;27378;-76
2023/05/24 06:07:07;;;;;;;5.60;2.02;;;23.10;57.30;;;;;;914485;152;27351;-76
2023/05/24 06:09:34;;;;;;;4.05;2.15;;;23.20;57.00;;;;;;921980;153;27371;-76
2023/05/24 06:12:01;;;;;;;4.33;2.67;;;23.40;56.80;;;;;;916628;153;27416;-76
2023/05/24 06:14:27;;;;;;;5.45;2.60;;;23.70;56.50;;;;;;922106;153;27501;-76
2023/05/24 06:16:54;;;;;;;4.28;2.20;;;23.90;56.30;;;;;;938390;152;27313;-76
2023/05/24 06:19:20;;;;;;;4.35;2.02;;;24.20;55.90;;;;;;937972;150;27350;-76
2023/05/24 06:21:48;;;;;;;5.03;2.33;;;24.50;55.30;;;;;;939032;150;27316;-76
2023/05/24 06:24:14;;;;;;;4.55;2.25;;;24.90;54.70;;;;;;912897;156;27523;-76
2023/05/24 06:26:40;;;;;;;4.35;2.47;;;25.20;54.30;;;;;;913512;154;27477;-76
2023/05/24 06:29:08;;;;;;;5.15;2.02;;;25.40;53.40;;;;;;938619;152;27456;-76
2023/05/24 06:31:34;;;;;;;4.53;2.08;;;25.60;52.70;;;;;;938256;152;27403;-76
2023/05/24 06:34:00;;;;;;;4.55;3.12;;;25.80;52.70;;;;;;939223;152;27430;-76
2023/05/24 06:36:26;;;;;;;4.40;2.40;;;26.10;52.30;;;;;;938246;150;27345;-75
2023/05/24 06:38:53;;;;;;;4.87;2.33;;;26.30;52.10;;;;;;938957;152;27408;-74
2023/05/24 06:41:20;;;;;;;7.30;2.22;;;26.60;51.80;;;;;;937520;150;27663;-75
2023/05/24 06:43:46;;;;;;;3.17;2.10;;;26.90;51.40;;;;;;926482;151;27513;-75
2023/05/24 06:46:13;;;;;;;6.15;2.08;;;27.10;50.60;;;;;;947203;148;27379;-76
2023/05/24 06:48:40;;;;;;;3.15;1.75;;;27.30;49.40;;;;;;946312;151;27374;-75
2023/05/24 06:51:06;;;;;;;5.28;2.60;;;27.40;49.00;;;;;;945035;151;27316;-75
2023/05/24 06:53:33;;;;;;;7.78;2.52;;;27.40;48.40;;;;;;946371;151;27313;-75
2023/05/24 06:55:59;;;;;;;5.22;2.40;;;27.40;48.20;;;;;;946639;151;27855;-75
2023/05/24 06:58:26;;;;;;;3.98;1.75;;;27.40;48.20;;;;;;946205;151;27361;-75
2023/05/24 07:00:53;;;;;;;8.00;2.52;;;27.40;48.20;;;;;;932083;151;27357;-75
2023/05/24 07:03:20;;;;;;;4.72;2.42;;;27.60;48.00;;;;;;947552;148;27325;-75
2023/05/24 07:05:46;;;;;;;5.03;2.10;;;27.80;47.80;;;;;;947313;148;27363;-75
2023/05/24 07:08:12;;;;;;;4.65;2.37;;;28.00;47.10;;;;;;946711;148;27376;-75
2023/05/24 07:10:39;;;;;;;5.62;2.45;;;28.20;47.40;;;;;;946196;148;27435;-75
2023/05/24 07:13:05;;;;;;;5.15;2.42;;;28.50;47.20;;;;;;948123;148;27357;-75
2023/05/24 07:15:32;;;;;;;4.83;1.95;;;28.90;47.00;;;;;;948234;148;27262;-75
2023/05/24 07:17:59;;;;;;;4.37;2.40;;;29.20;46.90;;;;;;930990;151;27466;-75
2023/05/24 07:20:25;;;;;;;4.45;2.12;;;29.60;45.70;;;;;;947122;148;27345;-75
2023/05/24 07:22:52;;;;;;;4.25;2.00;;;30.00;45.90;;;;;;947666;148;27389;-75
2023/05/24 07:25:18;;;;;;;4.83;2.30;;;30.30;45.10;;;;;;947641;148;27309;-75
2023/05/24 07:27:45;;;;;;;3.10;2.02;;;30.60;44.60;;;;;;948102;148;27470;-75
2023/05/24 07:30:11;;;;;;;5.15;2.80;;;30.80;43.90;;;;;;930863;151;27396;-75
2023/05/24 07:32:38;;;;;;;4.92;2.15;;;31.00;42.40;;;;;;931755;151;27420;-75
2023/05/24 07:35:05;;;;;;;4.85;2.47;;;31.00;42.50;;;;;;928033;152;27421;-76
2023/05/24 07:37:31;;;;;;;4.15;1.90;;;31.00;42.10;;;;;;946028;149;27465;-76
2023/05/24 07:39:58;;;;;;;4.30;2.40;;;31.00;41.60;;;;;;946623;148;27866;-76
2023/05/24 07:42:25;;;;;;;4.78;2.37;;;31.00;41.90;;;;;;946463;148;27402;-76
2023/05/24 07:44:51;;;;;;;5.55;2.72;;;31.20;41.70;;;;;;924587;151;27356;-76
2023/05/24 07:47:18;;;;;;;5.08;2.37;;;31.30;40.60;;;;;;912002;153;27357;-76
2023/05/24 07:49:45;;;;;;;3.90;2.20;;;31.40;40.70;;;;;;933881;149;27447;-76
2023/05/24 07:52:11;;;;;;;5.22;2.02;;;31.50;40.70;;;;;;934269;150;27449;-76
2023/05/24 07:54:37;;;;;;;6.15;2.52;;;31.60;40.90;;;;;;911277;152;27327;-76
2023/05/24 07:57:04;;;;;;;8.00;1.95;;;31.80;40.40;;;;;;912543;153;27370;-76
2023/05/24 07:59:31;;;;;;;5.80;2.52;;;31.80;39.80;;;;;;934668;149;27468;-76
2023/05/24 08:02:02;;;;;;;4.83;2.50;;;31.70;39.00;;;;;;919116;152;27474;-76
2023/05/24 08:04:24;;;;;;;4.05;2.20;;;31.50;38.50;;;;;;933417;150;27425;-76
2023/05/24 08:06:50;;;;;;;4.65;2.33;;;31.20;38.50;;;;;;918008;152;27346;-76
2023/05/24 08:09:17;;;;;;;6.47;2.20;;;30.80;38.00;;;;;;935103;149;27423;-76
2023/05/24 08:11:43;;;;;;;4.65;2.40;;;30.30;37.60;;;;;;935116;149;27448;-76
2023/05/24 08:14:10;;;;;;;5.10;2.60;;;29.70;37.00;;;;;;935321;149;27459;-76
2023/05/24 08:16:37;;;;;;;5.90;2.55;;;29.10;37.10;;;;;;918548;152;27430;-76
2023/05/24 08:19:03;;;;;;;5.45;2.60;;;28.30;37.30;;;;;;919923;152;27329;-76
2023/05/24 08:21:30;;;;;;;6.15;2.20;;;27.50;37.40;;;;;;918397;152;27494;-75
2023/05/24 08:23:56;;;;;;;4.53;2.12;;;26.70;38.10;;;;;;934397;149;27317;-76
2023/05/24 08:26:23;;;;;;;3.50;2.10;;;26.00;38.60;;;;;;934752;149;27408;-76
2023/05/24 08:28:50;;;;;;;7.10;2.62;;;25.30;38.90;;;;;;923820;152;27275;-75
2023/05/24 08:31:16;;;;;;;5.97;3.00;;;24.70;39.60;;;;;;912329;153;27460;-75
2023/05/24 08:33:43;;;;;;;3.85;2.00;;;24.10;40.10;;;;;;917388;153;27388;-75
2023/05/24 08:36:09;;;;;;;5.97;2.52;;;23.60;40.60;;;;;;932797;149;27439;-75
2023/05/24 08:38:36;;;;;;;3.50;2.35;;;23.20;41.00;;;;;;912197;153;27320;-75
2023/05/24 08:41:03;;;;;;;5.83;3.02;;;22.80;41.60;;;;;;935338;149;27440;-75
2023/05/24 08:43:29;;;;;;;7.17;3.02;;;22.40;42.20;;;;;;911794;153;27509;-75
2023/05/24 08:45:56;;;;;;;6.72;2.50;;;22.10;42.50;;;;;;930195;151;27445;-75
2023/05/24 08:48:22;;;;;;;7.37;2.85;;;21.90;42.90;;;;;;929802;151;27422;-75
2023/05/24 08:50:49;;;;;;;4.28;2.60;;;21.60;43.20;;;;;;930396;151;27363;-75
2023/05/24 08:53:15;;;;;;;7.72;2.98;;;21.40;44.00;;;;;;930220;151;27486;-75
2023/05/24 08:55:42;;;;;;;5.95;2.33;;;21.20;43.80;;;;;;929880;151;27363;-75
2023/05/24 08:58:09;;;;;;;3.37;2.15;;;21.20;44.30;;;;;;930503;151;27323;-75
2023/05/24 09:00:35;;;;;;;4.50;2.85;;;21.10;44.30;;;;;;930089;151;27330;-75
2023/05/24 09:03:02;;;;;;;6.30;3.02;;;21.00;44.30;;;;;;929742;151;27443;-75
2023/05/24 09:05:29;;;;;;;6.70;2.40;;;21.00;44.50;;;;;;930332;151;27379;-75
2023/05/24 09:07:55;;;;;;;5.28;2.58;;;21.10;44.90;;;;;;930063;150;27332;-75
2023/05/24 09:10:22;;;;;;;5.50;2.55;;;21.30;45.50;;;;;;930182;151;27471;-75
2023/05/24 09:12:48;;;;;;;4.03;2.05;;;21.70;46.30;;;;;;929940;151;27361;-75
2023/05/24 09:15:15;;;;;;;10.30;2.77;;;22.30;47.20;;;;;;929664;151;27493;-75
2023/05/24 09:17:41;;;;;;;7.12;2.62;;;23.00;47.50;;;;;;930413;151;27485;-76
2023/05/24 09:20:08;;;;;;;4.90;3.15;;;23.80;46.80;;;;;;930350;151;27318;-76
2023/05/24 09:22:36;;;;;;;5.35;2.70;;;24.50;45.40;;;;;;930481;151;27339;-76
2023/05/24 09:25:01;;;;;;;4.12;2.22;;;24.90;43.60;;;;;;929889;151;27468;-75
2023/05/24 09:27:28;;;;;;;5.10;2.45;;;25.00;42.50;;;;;;929965;151;27457;-75
2023/05/24 09:29:54;;;;;;;5.42;2.77;;;24.90;41.90;;;;;;930827;151;27339;-76
2023/05/24 09:32:23;;;;;;;5.55;2.60;;;24.90;41.80;;;;;;930283;151;27804;-75
2023/05/24 09:34:48;;;;;;;5.22;2.50;;;24.90;42.40;;;;;;930149;151;27401;-75
2023/05/24 09:37:15;;;;;;;6.95;2.83;;;25.00;43.20;;;;;;929641;151;27381;-75
2023/05/24 09:39:43;;;;;;;4.97;2.33;;;25.40;43.50;;;;;;929795;151;27355;-75
2023/05/24 09:42:21;;;;;;;3.08;2.33;;;25.80;43.70;;;;;;930293;151;27296;-76
2023/05/24 09:44:46;;;;;;;7.00;2.80;;;26.40;43.60;;;;;;929003;151;27389;-75
2023/05/24 09:47:12;;;;;;;4.78;2.40;;;26.90;42.70;;;;;;930327;151;27397;-76
2023/05/24 09:49:38;;;;;;;5.78;2.20;;;27.30;42.30;;;;;;930617;151;27860;-75
2023/05/24 09:52:05;;;;;;;3.20;2.17;;;27.60;41.90;;;;;;930051;151;27459;-76
2023/05/24 09:54:31;;;;;;;5.92;2.75;;;27.90;42.10;;;;;;930126;151;27483;-76
2023/05/24 09:57:01;;;;;;;6.37;2.72;;;28.20;40.90;;;;;;929898;151;27287;-75
2023/05/24 09:59:27;;;;;;;5.67;2.77;;;28.30;40.20;;;;;;930326;151;27478;-76
2023/05/24 10:01:54;;;;;;;5.92;3.20;;;28.40;39.80;;;;;;930366;151;27325;-75
2023/05/24 10:04:20;;;;;;;5.65;3.10;;;28.40;39.60;;;;;;924471;151;27369;-76
2023/05/24 10:06:47;;;;;;;4.87;2.60;;;28.30;39.20;;;;;;927633;151;27368;-76
2023/05/24 10:09:14;;;;;;;8.23;3.02;;;28.20;39.00;;;;;;930181;151;27385;-76
2023/05/24 10:11:40;;;;;;;4.37;2.55;;;28.10;38.70;;;;;;930073;151;27372;-75
2023/05/24 10:14:07;;;;;;;4.85;2.27;;;27.80;38.20;;;;;;930945;151;27479;-75
2023/05/24 10:16:33;;;;;;;9.73;3.08;;;27.60;38.30;;;;;;929692;151;27383;-75
2023/05/24 10:19:00;;;;;;;6.33;2.92;;;27.30;38.50;;;;;;930351;151;27604;-75
2023/05/24 10:21:27;;;;;;;5.80;2.87;;;27.20;38.30;;;;;;929820;151;27363;-75
2023/05/24 10:23:53;;;;;;;5.17;2.60;;;26.90;38.50;;;;;;930109;151;27995;-76
2023/05/24 10:26:20;;;;;;;4.47;2.77;;;26.70;38.30;;;;;;929338;151;27379;-76
2023/05/24 10:28:51;;;;;;;5.53;2.92;;;26.50;38.40;;;;;;929899;151;27358;-76
2023/05/24 10:31:22;;;;;;;6.17;2.90;;;26.30;38.00;;;;;;929381;150;27356;-75
2023/05/24 10:33:50;;;;;;;5.55;2.62;;;26.10;38.10;;;;;;929755;151;27508;-75
2023/05/24 10:36:15;;;;;;;6.37;2.80;;;25.70;38.40;;;;;;930118;151;27369;-75
2023/05/24 10:38:41;;;;;;;5.10;2.75;;;25.40;38.60;;;;;;929883;151;27373;-76
2023/05/24 10:41:08;;;;;;;9.28;2.72;;;25.20;38.70;;;;;;929559;151;27347;-76
2023/05/24 10:43:37;;;;;;;8.85;2.92;;;25.00;38.90;;;;;;930671;151;27481;-75
2023/05/24 10:46:04;;;;;;;3.85;2.47;;;24.70;39.00;;;;;;929917;151;27422;-76
2023/05/24 10:48:35;;;;;;;6.35;2.85;;;24.50;39.20;;;;;;930183;151;27368;-75
2023/05/24 10:51:34;;;;;;;5.67;2.87;;;24.30;39.30;;;;;;928880;151;27384;-76
2023/05/24 10:54:15;;;;;;;5.78;2.92;;;24.10;39.50;;;;;;929640;151;27531;-76
2023/05/24 10:56:48;;;;;;;5.75;2.92;;;23.90;39.60;;;;;;929969;151;27470;-76
2023/05/24 10:59:23;;;;;;;7.22;2.67;;;23.70;39.90;;;;;;930675;151;28119;-76
2023/05/24 11:01:56;;;;;;;5.08;2.72;;;23.50;39.80;;;;;;929796;151;27450;-76
2023/05/24 11:04:22;;;;;;;6.42;2.80;;;23.30;40.00;;;;;;930012;151;27510;-76
2023/05/24 11:06:55;;;;;;;6.12;3.40;;;23.00;40.20;;;;;;930359;150;27467;-76
2023/05/24 11:09:21;;;;;;;5.75;2.90;;;22.80;40.30;;;;;;929753;151;27405;-76
2023/05/24 11:11:48;;;;;;;2.92;2.30;;;22.60;40.60;;;;;;930055;151;27423;-76
2023/05/24 11:14:17;;;;;;;4.35;2.75;;;22.50;40.90;;;;;;930096;151;27438;-76
2023/05/24 11:16:43;;;;;;;4.60;2.50;;;22.40;41.10;;;;;;930338;151;27480;-76
2023/05/24 11:19:19;;;;;;;5.42;2.58;;;22.30;41.10;;;;;;930237;151;27307;-76
2023/05/24 11:21:46;;;;;;;4.95;2.65;;;22.20;41.80;;;;;;930120;151;27344;-76
2023/05/24 11:24:12;;;;;;;5.12;2.42;;;22.10;41.30;;;;;;929746;151;27274;-76
2023/05/24 11:26:40;;;;;;;5.62;2.67;;;22.00;41.50;;;;;;930365;151;27420;-76
2023/05/24 11:29:06;;;;;;;5.62;2.58;;;22.00;41.70;;;;;;929651;151;27389;-76
2023/05/24 11:31:32;;;;;;;5.72;2.75;;;21.90;41.80;;;;;;930302;151;27434;-76
2023/05/24 11:34:01;;;;;;;4.70;3.22;;;21.90;41.80;;;;;;930564;151;27358;-76
2023/05/24 11:36:28;;;;;;;5.53;2.72;;;21.90;42.00;;;;;;929383;151;27486;-76
2023/05/24 11:38:54;;;;;;;3.87;2.62;;;21.80;42.00;;;;;;930250;151;27416;-76
2023/05/24 11:41:21;;;;;;;5.45;2.65;;;21.80;42.00;;;;;;930414;151;27294;-76
2023/05/24 11:43:47;;;;;;;5.55;2.70;;;21.80;41.80;;;;;;930199;151;27906;-76
2023/05/24 11:46:14;;;;;;;4.25;2.27;;;21.70;41.70;;;;;;929800;151;27432;-76
2023/05/24 11:48:41;;;;;;;7.90;3.10;;;21.60;42.00;;;;;;930287;151;27308;-76
2023/05/24 11:51:07;;;;;;;5.80;2.70;;;21.60;42.10;;;;;;930296;151;27362;-76
2023/05/24 11:53:34;;;;;;;2.77;2.00;;;21.50;42.20;;;;;;930328;151;27378;-76
2023/05/24 11:56:00;;;;;;;5.67;2.60;;;21.50;42.30;;;;;;930916;151;27467;-76
2023/05/24 11:58:33;;;;;;;5.47;2.45;;;21.50;42.40;;;;;;929757;151;27485;-76
2023/05/24 12:01:01;;;;;;;4.72;3.27;;;21.50;42.60;;;;;;928064;151;27455;-76
2023/05/24 12:03:26;;;;;;;6.75;2.95;;;21.40;42.60;;;;;;929789;150;27848;-76
2023/05/24 12:05:53;;;;;;;6.62;2.50;;;21.50;42.30;;;;;;930303;151;27377;-76
2023/05/24 12:08:20;;;;;;;4.70;2.40;;;21.40;42.20;;;;;;929457;151;27476;-76
2023/05/24 12:10:46;;;;;;;5.70;2.45;;;21.40;42.30;;;;;;930348;150;27343;-76
2023/05/24 12:13:18;;;;;;;5.55;2.52;;;21.50;42.50;;;;;;929206;151;27361;-76
2023/05/24 12:15:45;;;;;;;3.35;2.70;;;21.50;42.50;;;;;;929969;151;27358;-76
2023/05/24 12:18:17;;;;;;;5.78;2.58;;;21.60;42.60;;;;;;930927;151;27467;-76
2023/05/24 12:20:44;;;;;;;4.95;2.30;;;21.70;42.70;;;;;;929039;151;27423;-76
2023/05/24 12:23:11;;;;;;;4.45;2.35;;;21.80;42.90;;;;;;930278;151;27368;-76
2023/05/24 12:25:37;;;;;;;7.45;2.85;;;21.90;42.80;;;;;;929985;151;27333;-76
2023/05/24 12:28:04;;;;;;;5.58;2.50;;;22.00;42.50;;;;;;930075;151;27725;-76
2023/05/24 12:30:30;;;;;;;5.10;2.52;;;22.10;42.30;;;;;;930943;151;27356;-77
2023/05/24 12:32:57;;;;;;;4.65;2.60;;;22.10;42.80;;;;;;930597;151;27329;-76
2023/05/24 12:35:24;;;;;;;5.08;2.47;;;22.20;41.90;;;;;;930391;151;27375;-76
2023/05/24 12:37:50;;;;;;;4.10;2.92;;;22.30;42.00;;;;;;930331;151;27466;-76
2023/05/24 12:40:22;;;;;;;4.95;2.87;;;22.30;41.80;;;;;;928933;151;27387;-76
2023/05/24 12:42:55;;;;;;;3.95;2.47;;;22.30;41.80;;;;;;930008;151;27443;-76
2023/05/24 12:45:27;;;;;;;6.87;2.50;;;22.20;41.70;;;;;;929926;151;27388;-76